Time;durP1;ratioP1;P1;durP2;ratioP2;P2;SDS_P1;SDS_P2;PMS_P1;PMS_P2;Temp;Humidity;BMP_temperature;BMP_pressure;BME280_temperature;BME280_humidity;BME280_pressure;Samples;Min_cycle;Max_cycle;Signal;HPM_P1;HPM_P2
2021/06/15 10:34:53;;;;;;;3.78;1.83;;;25.40;53.50;;;;;;5092525;27;20364;-79
2021/06/15 10:37:31;;;;;;;3.92;2.40;;;25.40;54.40;;;;;;5061348;28;20028;-80
2021/06/15 10:39:57;;;;;;;3.53;2.33;;;25.20;54.20;;;;;;5095148;28;20052;-79
2021/06/15 10:42:23;;;;;;;4.50;2.47;;;25.10;54.30;;;;;;5064721;28;20020;-83
2021/06/15 10:45:15;;;;;;;3.88;2.45;;;25.00;55.00;;;;;;5078946;28;20554;-81
2021/06/15 10:48:04;;;;;;;4.47;2.17;;;24.90;54.90;;;;;;5077595;28;20410;-80
2021/06/15 10:51:03;;;;;;;4.70;2.13;;;24.90;55.30;;;;;;5073933;28;20109;-81
2021/06/15 10:53:39;;;;;;;7.32;2.47;;;24.80;55.30;;;;;;5076031;28;20491;-79
2021/06/15 10:56:09;;;;;;;2.85;2.00;;;24.80;54.80;;;;;;5076850;28;20079;-79
2021/06/15 10:58:35;;;;;;;3.88;2.00;;;24.70;54.70;;;;;;5074865;28;20036;-82
2021/06/15 11:01:14;;;;;;;3.47;2.17;;;24.70;54.50;;;;;;5069776;28;21034;-81
2021/06/15 11:03:46;;;;;;;4.22;1.98;;;24.80;54.00;;;;;;5059512;28;20078;-79
2021/06/15 11:06:12;;;;;;;3.03;1.90;;;24.80;53.50;;;;;;5090722;28;20188;-80
2021/06/15 11:08:38;;;;;;;5.40;1.88;;;24.80;53.10;;;;;;5074756;28;20522;-79
2021/06/15 11:11:21;;;;;;;5.35;2.10;;;24.80;53.40;;;;;;5055762;28;20032;-81
2021/06/15 11:13:51;;;;;;;3.35;1.70;;;24.90;52.20;;;;;;5077856;28;20033;-80
2021/06/15 11:16:22;;;;;;;6.30;2.30;;;24.80;52.50;;;;;;5072112;28;20025;-81
2021/06/15 11:19:10;;;;;;;6.70;2.30;;;24.80;53.10;;;;;;5074621;28;20430;-81
2021/06/15 11:21:49;;;;;;;5.18;1.92;;;24.90;53.50;;;;;;5071091;28;20028;-82
2021/06/15 11:24:27;;;;;;;1.83;1.60;;;24.90;52.10;;;;;;5057844;28;20058;-81
2021/06/15 11:26:56;;;;;;;2.47;1.40;;;24.90;51.40;;;;;;5075054;28;20047;-78
2021/06/15 11:29:41;;;;;;;5.07;1.73;;;24.90;50.30;;;;;;5055595;28;20399;-82
2021/06/15 11:32:16;;;;;;;5.75;1.88;;;24.80;50.60;;;;;;5072804;28;20051;-80
2021/06/15 11:34:42;;;;;;;;;;;24.80;50.70;;;;;;5086052;28;20059;-81
2021/06/15 11:37:21;;;;;;;2.22;1.65;;;24.90;50.10;;;;;;5073299;28;19934;-80
2021/06/15 11:39:48;;;;;;;1.75;1.65;;;24.90;49.70;;;;;;5074255;28;20457;-81
2021/06/15 11:42:21;;;;;;;3.53;1.48;;;25.00;49.60;;;;;;5071292;28;20453;-80
2021/06/15 11:44:56;;;;;;;3.03;1.60;;;25.10;48.90;;;;;;5058201;28;20136;-81
2021/06/15 11:47:29;;;;;;;1.50;1.40;;;25.20;48.70;;;;;;5073723;28;20031;-79
2021/06/15 11:50:08;;;;;;;2.65;1.60;;;25.20;48.90;;;;;;5074099;28;20048;-82
2021/06/15 11:52:36;;;;;;;2.50;1.73;;;25.20;48.90;;;;;;5059350;28;20032;-79
2021/06/15 11:55:03;;;;;;;5.13;1.77;;;25.20;49.00;;;;;;5043496;28;20040;-81
2021/06/15 11:57:29;;;;;;;3.15;1.85;;;25.10;49.00;;;;;;5059819;28;20058;-82
2021/06/15 11:59:54;;;;;;;5.57;1.92;;;25.00;48.80;;;;;;5041276;28;20033;-79
2021/06/15 12:02:21;;;;;;;4.38;2.13;;;25.00;49.20;;;;;;5063013;28;20017;-80
2021/06/15 12:05:17;;;;;;;2.83;1.85;;;24.90;49.80;;;;;;5060244;28;20032;-80
2021/06/15 12:07:53;;;;;;;2.75;1.67;;;24.90;49.60;;;;;;5034712;28;20457;-81
2021/06/15 12:10:20;;;;;;;6.15;2.25;;;24.80;49.50;;;;;;5042979;28;20716;-81
2021/06/15 12:13:00;;;;;;;5.25;1.52;;;24.90;49.50;;;;;;5044511;28;20020;-79
2021/06/15 12:15:45;;;;;;;10.57;2.22;;;24.90;49.40;;;;;;5061110;28;20329;-82
2021/06/15 12:18:21;;;;;;;3.90;1.83;;;24.90;49.00;;;;;;5060803;28;20776;-81
2021/06/15 12:20:55;;;;;;;6.90;2.00;;;25.00;49.10;;;;;;5060651;28;20024;-81
2021/06/15 12:23:37;;;;;;;5.60;1.67;;;24.90;49.10;;;;;;5044670;28;20402;-79
2021/06/15 12:26:18;;;;;;;10.13;2.38;;;24.90;49.80;;;;;;5046186;28;20667;-80
2021/06/15 12:28:48;;;;;;;4.75;1.92;;;24.90;49.40;;;;;;5075191;28;20062;-80
2021/06/15 12:31:14;;;;;;;5.40;2.20;;;24.80;48.50;;;;;;5044776;28;20029;-81
2021/06/15 12:33:41;;;;;;;6.43;1.80;;;24.90;48.50;;;;;;5063947;28;20113;-80
2021/06/15 12:36:11;;;;;;;1.98;1.67;;;24.90;48.50;;;;;;5044013;28;20033;-80
2021/06/15 12:38:38;;;;;;;2.80;1.83;;;25.00;48.60;;;;;;5043781;28;20055;-80
2021/06/15 12:41:06;;;;;;;6.03;2.20;;;25.00;48.70;;;;;;5061300;28;20029;-81
2021/06/15 12:43:32;;;;;;;4.78;1.95;;;25.00;49.10;;;;;;5059981;28;20126;-80
2021/06/15 12:46:27;;;;;;;9.55;2.25;;;25.00;49.40;;;;;;5059940;28;20024;-79
2021/06/15 12:49:04;;;;;;;7.82;2.38;;;24.90;48.50;;;;;;5060960;28;20357;-79
2021/06/15 12:51:33;;;;;;;3.30;1.90;;;24.90;48.70;;;;;;5058640;28;20028;-77
2021/06/15 12:54:02;;;;;;;2.97;1.88;;;24.90;48.70;;;;;;5051208;28;20448;-82
2021/06/15 12:56:29;;;;;;;5.45;2.00;;;25.00;49.30;;;;;;5073559;28;20438;-80
2021/06/15 12:58:57;;;;;;;4.50;2.30;;;25.00;48.70;;;;;;5057968;28;20078;-80
2021/06/15 13:01:35;;;;;;;4.38;1.98;;;25.10;49.00;;;;;;5056430;28;20685;-80
2021/06/15 13:04:22;;;;;;;55.15;11.13;;;25.20;48.70;;;;;;5057602;28;20050;-80
2021/06/15 13:06:48;;;;;;;531.70;125.68;;;25.30;48.90;;;;;;5058866;28;20029;-76
2021/06/15 13:09:17;;;;;;;1242.03;561.97;;;25.30;58.00;;;;;;5041609;28;20451;-81
2021/06/15 13:12:06;;;;;;;378.83;110.10;;;25.30;67.80;;;;;;5041558;28;20251;-78
2021/06/15 13:14:33;;;;;;;165.95;46.53;;;25.30;59.20;;;;;;5053790;28;20029;-80
2021/06/15 13:17:19;;;;;;;68.97;20.48;;;25.50;53.90;;;;;;5054411;28;20039;-75
2021/06/15 13:19:50;;;;;;;31.95;10.23;;;25.50;51.70;;;;;;5058079;28;20146;-77
2021/06/15 13:22:25;;;;;;;21.13;6.50;;;25.50;50.80;;;;;;5056504;28;20029;-78
2021/06/15 13:24:51;;;;;;;13.65;4.47;;;25.40;51.30;;;;;;5057080;28;20027;-76
2021/06/15 13:30:07;;;;;;;10.02;4.72;;;25.30;53.50;;;;;;5060091;28;20741;-78
2021/06/15 13:32:32;;;;;;;13.80;5.80;;;25.30;57.00;;;;;;5042159;28;20314;-75
2021/06/15 13:35:10;;;;;;;11.77;5.28;;;25.30;57.70;;;;;;5055576;28;20030;-77
2021/06/15 13:37:44;;;;;;;26.67;7.32;;;25.30;58.80;;;;;;5053606;28;20032;-79
2021/06/15 13:40:12;;;;;;;19.25;5.00;;;25.30;59.00;;;;;;5056418;28;20446;-76
2021/06/15 13:42:38;;;;;;;25.88;5.90;;;25.30;56.20;;;;;;5040231;28;20031;-79
2021/06/15 13:45:06;;;;;;;14.93;4.85;;;25.30;56.80;;;;;;5039690;28;20063;-80
2021/06/15 13:47:33;;;;;;;14.90;4.57;;;25.40;54.80;;;;;;5058149;28;20467;-81
2021/06/15 13:49:58;;;;;;;13.45;4.00;;;25.60;53.60;;;;;;5055838;28;20040;-79
2021/06/15 13:52:24;;;;;;;6.60;3.42;;;25.70;54.20;;;;;;5035644;28;20032;-80
2021/06/15 13:54:50;;;;;;;7.00;3.10;;;25.70;53.70;;;;;;5050903;28;20028;-78
2021/06/15 13:57:16;;;;;;;6.13;2.80;;;25.80;53.00;;;;;;5064617;28;20036;-78
2021/06/15 13:59:41;;;;;;;5.47;2.22;;;25.70;53.40;;;;;;5038403;28;20391;-80
2021/06/15 14:02:07;;;;;;;5.43;2.40;;;25.70;52.10;;;;;;5042447;28;20063;-80
2021/06/15 14:04:33;;;;;;;6.85;2.95;;;25.80;50.00;;;;;;5053333;28;20052;-80
2021/06/15 14:06:59;;;;;;;6.38;2.50;;;25.70;52.30;;;;;;5041542;28;20031;-80
2021/06/15 14:09:24;;;;;;;2.95;1.92;;;25.70;50.90;;;;;;5039002;28;20266;-81
2021/06/15 14:11:50;;;;;;;10.02;2.80;;;25.60;50.20;;;;;;5052851;28;20024;-81
2021/06/15 14:14:16;;;;;;;8.85;2.45;;;25.60;49.40;;;;;;5056446;28;20466;-80
2021/06/15 14:16:42;;;;;;;2.83;1.80;;;25.70;48.60;;;;;;5040821;28;20116;-78
2021/06/15 14:19:08;;;;;;;3.22;2.05;;;25.70;48.60;;;;;;5057146;28;20082;-81
2021/06/15 14:21:39;;;;;;;4.38;1.65;;;25.80;48.50;;;;;;5043840;28;20036;-78
2021/06/15 14:24:08;;;;;;;4.95;1.70;;;25.90;48.40;;;;;;5054328;28;20432;-80
2021/06/15 14:26:37;;;;;;;3.78;2.13;;;25.90;48.10;;;;;;5039795;28;20043;-78
2021/06/15 14:29:04;;;;;;;6.50;1.70;;;25.60;47.50;;;;;;5055266;28;20666;-78
2021/06/15 14:31:30;;;;;;;4.95;1.75;;;25.80;47.00;;;;;;5055744;28;20087;-79
2021/06/15 14:33:55;;;;;;;2.33;1.80;;;25.70;46.70;;;;;;5053481;28;20044;-80
2021/06/15 14:36:21;;;;;;;3.90;1.60;;;25.60;47.20;;;;;;5055887;28;20456;-80
2021/06/15 14:38:49;;;;;;;4.53;1.92;;;25.60;47.60;;;;;;5042351;28;20703;-78
2021/06/15 14:41:15;;;;;;;5.40;1.52;;;25.50;47.70;;;;;;5058780;28;20078;-77
2021/06/15 14:43:41;;;;;;;3.00;1.70;;;25.40;47.60;;;;;;5051626;28;20029;-80
2021/06/15 14:46:07;;;;;;;5.10;1.60;;;25.40;46.90;;;;;;5058648;28;20035;-79
2021/06/15 14:48:33;;;;;;;2.25;1.48;;;25.40;47.40;;;;;;5041657;28;20036;-81
2021/06/15 14:50:59;;;;;;;2.30;1.45;;;25.40;47.60;;;;;;5072032;28;20491;-81
2021/06/15 14:53:24;;;;;;;4.95;1.58;;;25.40;47.10;;;;;;5041151;28;20052;-79
2021/06/15 14:55:50;;;;;;;5.55;1.80;;;25.40;47.40;;;;;;5051871;28;20451;-82
2021/06/15 14:58:15;;;;;;;3.75;1.63;;;25.50;47.20;;;;;;5058342;28;20035;-82
2021/06/15 15:00:41;;;;;;;5.50;1.45;;;25.40;47.40;;;;;;5057203;28;20575;-80
2021/06/15 15:03:07;;;;;;;5.53;1.50;;;25.50;47.40;;;;;;5055375;28;20102;-78
2021/06/15 15:05:34;;;;;;;4.03;1.60;;;25.50;46.90;;;;;;5058445;28;20027;-80
2021/06/15 15:08:00;;;;;;;4.38;1.52;;;25.50;47.20;;;;;;5055646;28;20083;-78
2021/06/15 15:10:26;;;;;;;8.02;1.95;;;25.50;46.60;;;;;;5041583;28;20538;-80
2021/06/15 15:12:53;;;;;;;3.80;1.80;;;25.50;47.20;;;;;;5025474;28;20032;-78
2021/06/15 15:15:19;;;;;;;4.72;1.70;;;25.60;47.20;;;;;;5057100;28;20497;-82
2021/06/15 15:17:46;;;;;;;3.58;1.60;;;25.70;48.10;;;;;;5038238;28;20025;-79
2021/06/15 15:20:12;;;;;;;4.18;1.58;;;25.70;47.60;;;;;;5054446;28;20032;-78
2021/06/15 15:22:39;;;;;;;6.15;1.80;;;25.70;47.60;;;;;;5061107;28;20054;-77
2021/06/15 15:25:05;;;;;;;4.10;1.55;;;25.70;47.50;;;;;;5057726;28;20029;-77
2021/06/15 15:27:31;;;;;;;2.58;1.70;;;25.70;47.30;;;;;;5044709;28;20177;-76
2021/06/15 15:29:56;;;;;;;3.90;2.00;;;25.60;47.40;;;;;;5076060;28;20290;-79
2021/06/15 15:32:23;;;;;;;5.68;1.75;;;25.60;49.20;;;;;;5065732;28;20116;-79
2021/06/15 15:34:49;;;;;;;3.58;1.50;;;25.50;48.10;;;;;;5058811;28;20138;-77
2021/06/15 15:37:15;;;;;;;5.85;1.88;;;25.50;49.10;;;;;;5061175;28;20551;-78
2021/06/15 15:39:40;;;;;;;4.68;1.52;;;25.50;47.40;;;;;;5056884;28;20594;-77
2021/06/15 15:42:06;;;;;;;5.15;1.30;;;25.50;47.80;;;;;;5051929;28;20020;-79
2021/06/15 15:44:32;;;;;;;7.78;2.10;;;25.60;48.00;;;;;;5058205;28;20040;-79
2021/06/15 15:46:59;;;;;;;6.35;1.30;;;25.70;47.90;;;;;;5038252;28;20056;-79
2021/06/15 15:49:25;;;;;;;2.13;1.15;;;25.70;47.60;;;;;;5042927;28;20021;-78
2021/06/15 15:51:50;;;;;;;5.22;1.63;;;25.80;47.40;;;;;;5042810;28;20097;-81
2021/06/15 15:54:17;;;;;;;3.13;1.50;;;25.90;47.00;;;;;;5058568;28;20395;-81
2021/06/15 15:56:44;;;;;;;2.50;1.50;;;25.90;47.20;;;;;;5058657;28;20021;-78
2021/06/15 15:59:11;;;;;;;3.50;1.50;;;25.80;47.10;;;;;;5058275;28;20107;-80
2021/06/15 16:01:37;;;;;;;2.13;1.65;;;25.70;47.10;;;;;;5043833;28;20430;-80
2021/06/15 16:04:05;;;;;;;3.97;1.73;;;25.60;47.10;;;;;;5059067;28;20032;-80
2021/06/15 16:06:31;;;;;;;6.20;2.20;;;25.60;47.20;;;;;;5056828;28;20029;-80
2021/06/15 16:08:56;;;;;;;4.50;1.73;;;25.50;47.00;;;;;;5056294;28;20055;-80
2021/06/15 16:11:22;;;;;;;2.95;2.00;;;25.50;47.50;;;;;;5042410;28;20062;-81
2021/06/15 16:13:48;;;;;;;4.50;1.65;;;25.50;48.20;;;;;;5058299;28;20029;-81
2021/06/15 16:16:13;;;;;;;6.55;1.98;;;25.50;46.00;;;;;;5058346;28;20024;-81
2021/06/15 16:18:39;;;;;;;2.63;1.65;;;25.50;46.40;;;;;;5058461;28;20459;-80
2021/06/15 16:21:05;;;;;;;8.57;1.80;;;25.60;46.50;;;;;;5043868;28;20028;-78
2021/06/15 16:23:31;;;;;;;5.47;2.10;;;25.70;46.30;;;;;;5042473;28;20037;-78
2021/06/15 16:25:56;;;;;;;3.42;1.55;;;25.80;46.40;;;;;;5044523;28;20116;-77
2021/06/15 16:28:22;;;;;;;5.47;1.70;;;25.80;45.90;;;;;;5044486;28;20054;-79
2021/06/15 16:30:48;;;;;;;7.38;2.78;;;25.80;46.10;;;;;;5061112;28;20044;-77
2021/06/15 16:33:13;;;;;;;115.45;54.55;;;25.80;46.50;;;;;;5064665;28;20039;-77
2021/06/15 16:35:39;;;;;;;79.88;36.33;;;25.70;48.70;;;;;;5062408;28;20464;-78
2021/06/15 16:38:09;;;;;;;43.10;21.05;;;25.70;48.50;;;;;;5051729;28;20029;-77
2021/06/15 16:40:34;;;;;;;24.05;8.40;;;25.60;47.80;;;;;;5055179;28;20048;-78
2021/06/15 16:43:00;;;;;;;11.68;5.10;;;25.50;47.30;;;;;;5084838;28;20479;-78
2021/06/15 16:45:26;;;;;;;9.98;5.00;;;25.50;46.50;;;;;;5063485;28;20028;-76
2021/06/15 16:47:52;;;;;;;13.45;5.03;;;25.60;47.00;;;;;;5063560;28;20025;-80
2021/06/15 16:50:18;;;;;;;18.10;5.20;;;25.60;47.10;;;;;;5063257;28;20036;-78
2021/06/15 16:52:44;;;;;;;10.75;3.70;;;25.70;47.30;;;;;;5062305;28;20036;-79
2021/06/15 16:55:10;;;;;;;9.05;2.83;;;25.80;46.70;;;;;;5062651;28;20081;-82
2021/06/15 16:57:37;;;;;;;9.23;3.25;;;25.70;47.90;;;;;;5063679;28;20299;-83
2021/06/15 17:00:05;;;;;;;4.40;2.38;;;25.80;46.90;;;;;;5047125;28;20028;-80
2021/06/15 17:02:31;;;;;;;7.50;2.75;;;25.90;46.60;;;;;;5060801;28;20035;-82
2021/06/15 17:04:57;;;;;;;5.50;2.28;;;25.90;46.30;;;;;;5061091;28;20028;-81
2021/06/15 17:07:23;;;;;;;4.57;2.17;;;25.90;46.20;;;;;;5046342;28;20463;-80
2021/06/15 17:09:50;;;;;;;3.97;1.92;;;25.90;46.40;;;;;;5062469;28;20056;-93
2021/06/15 17:12:15;;;;;;;6.63;2.13;;;25.80;45.20;;;;;;5065776;28;20032;-88
2021/06/15 17:14:42;;;;;;;6.93;1.98;;;25.60;44.80;;;;;;5066825;28;20044;-89
2021/06/15 17:17:07;;;;;;;3.28;1.88;;;25.60;45.50;;;;;;5050613;28;20390;-91
2021/06/15 17:19:36;;;;;;;5.25;1.83;;;25.60;46.10;;;;;;5047754;28;20029;-81
2021/06/15 17:22:06;;;;;;;4.18;2.38;;;25.60;46.20;;;;;;5063710;28;20024;-81
2021/06/15 17:24:31;;;;;;;3.85;1.70;;;25.60;45.90;;;;;;5044934;28;20032;-80
2021/06/15 17:26:57;;;;;;;5.57;1.83;;;25.70;45.20;;;;;;5058881;28;20039;-81
2021/06/15 17:29:23;;;;;;;4.10;2.17;;;25.70;44.70;;;;;;5060886;28;20028;-80
2021/06/15 17:31:49;;;;;;;8.60;1.98;;;25.80;45.00;;;;;;5077749;28;20033;-83
2021/06/15 17:34:14;;;;;;;11.30;2.72;;;25.90;45.00;;;;;;5057520;28;20107;-81
2021/06/15 17:36:40;;;;;;;7.53;2.63;;;25.90;45.50;;;;;;5059710;28;20063;-80
2021/06/15 17:39:06;;;;;;;5.32;2.00;;;25.90;45.40;;;;;;5048717;28;20043;-81
2021/06/15 17:41:33;;;;;;;4.15;1.70;;;25.90;45.20;;;;;;5062028;28;20032;-79
2021/06/15 17:43:58;;;;;;;5.35;1.70;;;25.90;44.70;;;;;;5043585;28;20033;-80
2021/06/15 17:46:24;;;;;;;4.75;1.80;;;25.90;44.70;;;;;;5060469;28;21487;-85
2021/06/15 17:48:49;;;;;;;7.57;2.15;;;25.80;44.80;;;;;;5061034;28;20044;-81
2021/06/15 17:51:16;;;;;;;3.75;1.70;;;25.80;44.80;;;;;;5061166;28;20040;-82
2021/06/15 17:53:42;;;;;;;3.92;1.70;;;25.70;44.60;;;;;;5075184;28;20181;-84
2021/06/15 17:56:08;;;;;;;6.70;1.50;;;25.70;44.70;;;;;;5045340;28;20112;-82
2021/06/15 17:58:36;;;;;;;2.90;1.80;;;25.70;44.50;;;;;;5061694;28;20028;-81
2021/06/15 18:01:01;;;;;;;2.70;1.70;;;25.70;44.40;;;;;;5061657;28;20032;-81
2021/06/15 18:03:27;;;;;;;3.70;1.67;;;25.60;44.30;;;;;;5061123;28;20028;-83
2021/06/15 18:05:54;;;;;;;6.55;1.98;;;25.60;44.60;;;;;;5042451;28;20028;-78
2021/06/15 18:08:24;;;;;;;5.45;1.77;;;25.70;45.20;;;;;;5044296;28;20173;-78
2021/06/15 18:10:50;;;;;;;5.82;1.98;;;25.60;45.10;;;;;;5058854;28;20382;-80
2021/06/15 18:13:17;;;;;;;4.32;1.77;;;25.60;45.20;;;;;;5043549;28;20028;-81
2021/06/15 18:15:43;;;;;;;3.85;1.55;;;25.60;44.70;;;;;;5043319;28;20916;-78
2021/06/15 18:18:08;;;;;;;6.40;2.05;;;25.60;44.90;;;;;;5048132;28;20105;-79
2021/06/15 18:20:35;;;;;;;7.78;1.75;;;25.60;44.90;;;;;;5062435;28;20546;-78
2021/06/15 18:23:01;;;;;;;12.32;1.50;;;25.60;45.40;;;;;;5053546;28;20067;-80
2021/06/15 18:25:27;;;;;;;7.18;1.70;;;25.60;46.90;;;;;;5042841;28;20075;-82
2021/06/15 18:27:53;;;;;;;8.68;1.73;;;25.60;47.00;;;;;;5058494;28;20017;-77
2021/06/15 18:30:19;;;;;;;4.50;1.60;;;25.60;45.90;;;;;;5057254;28;20658;-78
2021/06/15 18:32:45;;;;;;;2.78;1.63;;;25.60;45.80;;;;;;5061006;28;20037;-77
2021/06/15 18:35:12;;;;;;;5.68;2.53;;;25.60;45.60;;;;;;5058739;28;20039;-80
2021/06/15 18:37:38;;;;;;;6.00;3.03;;;25.60;45.30;;;;;;5058239;28;20066;-80
2021/06/15 18:40:04;;;;;;;8.40;2.30;;;25.50;44.90;;;;;;5042780;28;20124;-78
2021/06/15 18:42:30;;;;;;;4.32;2.25;;;25.50;45.30;;;;;;5058790;28;20025;-80
2021/06/15 18:44:56;;;;;;;3.78;2.22;;;25.50;45.30;;;;;;5054289;28;20028;-80
2021/06/15 18:47:21;;;;;;;3.50;2.00;;;25.50;45.30;;;;;;5043010;28;20020;-77
2021/06/15 18:49:47;;;;;;;4.03;2.10;;;25.50;45.30;;;;;;5058410;28;20085;-81
2021/06/15 18:52:13;;;;;;;7.57;2.35;;;25.60;45.40;;;;;;5069063;28;20033;-78
2021/06/15 18:54:38;;;;;;;3.17;2.08;;;25.50;45.40;;;;;;5046565;28;20032;-78
2021/06/15 18:57:05;;;;;;;3.53;2.10;;;25.50;45.40;;;;;;5058849;28;20040;-80
2021/06/15 18:59:30;;;;;;;2.72;1.30;;;25.40;45.40;;;;;;5063280;28;20024;-80
2021/06/15 19:01:56;;;;;;;5.95;2.00;;;25.40;45.30;;;;;;5058666;28;20073;-80
2021/06/15 19:04:21;;;;;;;4.95;2.10;;;25.40;45.20;;;;;;5059802;28;20681;-78
2021/06/15 19:06:47;;;;;;;6.53;2.15;;;25.40;45.40;;;;;;5063892;28;20028;-80
2021/06/15 19:09:13;;;;;;;5.65;2.38;;;25.40;45.60;;;;;;5058378;28;20024;-84
2021/06/15 19:11:39;;;;;;;3.70;1.65;;;25.40;45.80;;;;;;5063896;28;20028;-81
2021/06/15 19:14:05;;;;;;;6.95;1.77;;;25.40;45.80;;;;;;5050659;28;20139;-83
2021/06/15 19:17:46;;;;;;;4.78;1.60;;;25.50;46.30;;;;;;5106097;27;20372;-81
2021/06/15 19:20:16;;;;;;;4.80;1.88;;;24.60;46.10;;;;;;5080603;28;20106;-82
2021/06/15 19:22:41;;;;;;;4.72;1.75;;;24.00;49.10;;;;;;5075560;28;20020;-82
2021/06/15 19:25:07;;;;;;;5.85;2.20;;;23.50;49.30;;;;;;5075136;28;20032;-83
2021/06/15 19:27:33;;;;;;;9.13;1.90;;;23.40;49.80;;;;;;5072404;28;20020;-83
2021/06/15 19:29:59;;;;;;;4.28;1.95;;;23.10;52.40;;;;;;5065569;28;20066;-83
2021/06/15 19:32:24;;;;;;;3.40;1.98;;;22.90;52.80;;;;;;5057848;28;20032;-83
2021/06/15 19:34:50;;;;;;;15.15;2.60;;;22.90;51.30;;;;;;5079325;28;20385;-83
2021/06/15 19:37:15;;;;;;;5.15;2.03;;;22.70;52.90;;;;;;5074367;28;20020;-83
2021/06/15 19:39:41;;;;;;;7.13;2.25;;;22.70;52.50;;;;;;5061371;28;20024;-83
2021/06/15 19:42:07;;;;;;;9.27;2.28;;;22.50;52.50;;;;;;5086962;28;20016;-83
2021/06/15 19:44:33;;;;;;;6.97;2.28;;;22.50;54.40;;;;;;5062838;28;20034;-81
2021/06/15 19:46:59;;;;;;;5.32;1.88;;;22.20;52.90;;;;;;5076328;28;20028;-83
2021/06/15 19:49:24;;;;;;;3.47;2.10;;;22.40;51.40;;;;;;5071773;28;20038;-83
2021/06/15 19:51:50;;;;;;;6.97;2.85;;;22.30;53.70;;;;;;5090448;28;20486;-83
2021/06/15 19:54:16;;;;;;;3.90;2.13;;;22.30;53.00;;;;;;5089151;28;20024;-83
2021/06/15 19:56:41;;;;;;;9.10;2.40;;;22.10;52.80;;;;;;5075885;28;20489;-82
2021/06/15 19:59:07;;;;;;;5.93;1.90;;;21.90;53.50;;;;;;5076735;28;20085;-82
2021/06/15 20:01:33;;;;;;;6.88;3.03;;;22.00;53.50;;;;;;5088672;28;20487;-83
2021/06/15 20:03:59;;;;;;;6.53;3.38;;;21.90;53.30;;;;;;5078672;28;20111;-83
2021/06/15 20:06:24;;;;;;;16.80;7.50;;;21.70;54.30;;;;;;5069468;28;20032;-82
2021/06/15 20:08:50;;;;;;;10.43;3.88;;;21.80;53.90;;;;;;5073010;28;20036;-82
2021/06/15 20:11:15;;;;;;;7.45;2.63;;;21.70;55.00;;;;;;5078278;28;20039;-82
2021/06/15 20:13:43;;;;;;;8.43;2.90;;;21.80;53.80;;;;;;5075635;28;20024;-83
2021/06/15 20:16:09;;;;;;;4.60;2.60;;;21.70;55.50;;;;;;5056153;28;20135;-82
2021/06/15 20:18:41;;;;;;;8.00;2.70;;;21.40;57.70;;;;;;5058956;28;21253;-82
2021/06/15 20:21:07;;;;;;;7.13;2.60;;;21.40;58.60;;;;;;5073142;28;20133;-83
2021/06/15 20:23:32;;;;;;;7.32;2.75;;;21.20;59.50;;;;;;5075953;28;20633;-82
2021/06/15 20:25:58;;;;;;;6.40;2.50;;;21.10;63.00;;;;;;5073702;28;20567;-83
2021/06/15 20:28:24;;;;;;;10.18;2.95;;;20.80;60.50;;;;;;5060812;28;20037;-83
2021/06/15 20:30:49;;;;;;;11.05;3.30;;;20.60;65.60;;;;;;5056414;28;20032;-83
2021/06/15 20:33:15;;;;;;;8.63;2.97;;;20.40;69.20;;;;;;5068310;28;20102;-77
2021/06/15 20:35:41;;;;;;;8.05;2.65;;;20.40;67.50;;;;;;5041987;28;20051;-77
2021/06/15 20:38:07;;;;;;;14.18;2.83;;;20.10;63.80;;;;;;5054568;28;20980;-76
2021/06/15 20:40:33;;;;;;;4.45;2.05;;;20.10;70.10;;;;;;5055248;28;20577;-77
2021/06/15 20:42:59;;;;;;;7.07;1.70;;;20.00;68.50;;;;;;5038449;28;20020;-77
2021/06/15 20:45:25;;;;;;;9.00;2.00;;;19.90;62.50;;;;;;5054998;28;20021;-77
2021/06/15 20:47:50;;;;;;;7.57;2.03;;;20.40;58.80;;;;;;5059672;28;20568;-77
2021/06/15 20:50:20;;;;;;;10.32;2.40;;;20.40;66.50;;;;;;5050054;28;20051;-77
2021/06/15 20:52:46;;;;;;;9.32;2.15;;;19.90;66.40;;;;;;5041697;28;20060;-77
2021/06/15 20:55:12;;;;;;;7.47;2.72;;;19.90;67.30;;;;;;5058214;28;20116;-75
2021/06/15 20:57:38;;;;;;;9.05;2.70;;;20.10;64.30;;;;;;5040636;28;20024;-75
2021/06/15 21:00:05;;;;;;;3.88;2.33;;;20.00;71.10;;;;;;5050269;28;20468;-75
2021/06/15 21:02:31;;;;;;;4.65;2.50;;;19.60;68.30;;;;;;5057469;28;20615;-75
2021/06/15 21:04:56;;;;;;;6.10;2.60;;;19.50;72.70;;;;;;5041853;28;20028;-75
2021/06/15 21:07:22;;;;;;;4.80;2.75;;;19.50;68.90;;;;;;5057524;28;20024;-75
2021/06/15 21:09:48;;;;;;;8.27;3.13;;;19.40;70.60;;;;;;5058143;28;20032;-75
2021/06/15 21:12:14;;;;;;;6.82;3.20;;;19.10;71.20;;;;;;5058590;28;20029;-76
2021/06/15 21:14:39;;;;;;;15.90;5.28;;;19.10;76.40;;;;;;5056472;28;20029;-76
2021/06/15 21:17:05;;;;;;;9.90;4.00;;;18.90;78.00;;;;;;5061120;28;20060;-75
2021/06/15 21:19:31;;;;;;;9.65;3.13;;;18.80;84.50;;;;;;5058058;28;20021;-76
2021/06/15 21:21:56;;;;;;;6.03;2.40;;;18.60;79.40;;;;;;5066263;28;20027;-82
2021/06/15 21:24:22;;;;;;;4.80;2.40;;;18.50;79.10;;;;;;5062809;28;20507;-82
2021/06/15 21:27:10;;;;;;;10.55;2.97;;;18.50;81.90;;;;;;5080493;28;20145;-82
2021/06/15 21:29:35;;;;;;;6.43;2.63;;;18.40;83.50;;;;;;5074690;28;20033;-82
2021/06/15 21:32:01;;;;;;;5.25;3.10;;;18.40;76.00;;;;;;5077208;28;20032;-82
2021/06/15 21:34:26;;;;;;;8.18;2.97;;;18.50;78.50;;;;;;5064201;28;20017;-81
2021/06/15 21:36:52;;;;;;;6.13;2.60;;;18.60;76.00;;;;;;5050211;28;20033;-81
2021/06/15 21:39:18;;;;;;;8.25;3.20;;;18.50;79.90;;;;;;5075092;28;20599;-81
2021/06/15 21:41:44;;;;;;;5.05;2.60;;;18.30;84.50;;;;;;5057569;28;20033;-81
2021/06/15 21:44:11;;;;;;;5.65;2.90;;;18.10;83.10;;;;;;5038990;28;20116;-82
2021/06/15 21:46:36;;;;;;;8.98;2.95;;;18.10;82.90;;;;;;5062210;28;20574;-81
2021/06/15 21:49:03;;;;;;;7.00;2.83;;;18.40;77.70;;;;;;5051284;28;20060;-82
2021/06/15 21:51:29;;;;;;;5.10;2.60;;;18.30;80.40;;;;;;5048470;28;20021;-81
2021/06/15 21:53:55;;;;;;;7.90;2.80;;;18.30;78.50;;;;;;5061188;28;20029;-81
2021/06/15 21:56:32;;;;;;;7.07;2.53;;;18.10;80.80;;;;;;5059759;28;20112;-82
2021/06/15 21:58:58;;;;;;;6.07;2.55;;;18.20;76.30;;;;;;5042822;28;20027;-82
2021/06/15 22:01:24;;;;;;;5.88;3.10;;;18.10;83.40;;;;;;5047266;28;20029;-84
2021/06/15 22:03:49;;;;;;;6.45;2.97;;;17.90;82.50;;;;;;5027159;28;20028;-84
2021/06/15 22:06:18;;;;;;;4.07;2.83;;;17.80;82.30;;;;;;5041274;28;20025;-84
2021/06/15 22:08:45;;;;;;;7.03;3.33;;;17.80;84.70;;;;;;5057936;28;20864;-84
2021/06/15 22:11:11;;;;;;;6.28;3.10;;;17.70;87.20;;;;;;5037148;28;20520;-84
2021/06/15 22:13:38;;;;;;;5.28;2.80;;;17.60;83.40;;;;;;5068137;28;20108;-84
2021/06/15 22:16:04;;;;;;;7.53;2.80;;;17.60;84.80;;;;;;5045084;28;20029;-83
2021/06/15 22:18:30;;;;;;;7.55;3.40;;;17.60;84.20;;;;;;5037513;28;20085;-84
2021/06/15 22:20:56;;;;;;;9.25;3.15;;;17.60;81.80;;;;;;5041756;28;20550;-84
2021/06/15 22:23:21;;;;;;;4.68;2.78;;;17.50;84.00;;;;;;5046355;28;20670;-84
2021/06/15 22:25:47;;;;;;;3.60;2.60;;;17.40;84.20;;;;;;5047486;28;20078;-84
2021/06/15 22:28:13;;;;;;;5.22;2.65;;;17.40;85.30;;;;;;5058693;28;20036;-84
2021/06/15 22:30:39;;;;;;;5.82;3.30;;;17.30;86.00;;;;;;5059301;28;20171;-84
2021/06/15 22:33:05;;;;;;;5.60;3.40;;;17.30;86.10;;;;;;5056740;28;20660;-84
2021/06/15 22:35:32;;;;;;;4.97;3.13;;;17.20;84.40;;;;;;5053807;28;20038;-84
2021/06/15 22:37:58;;;;;;;4.45;2.78;;;17.10;85.90;;;;;;5047791;28;20025;-84
2021/06/15 22:40:23;;;;;;;4.30;2.90;;;17.20;81.40;;;;;;5037528;28;20027;-83
2021/06/15 22:42:49;;;;;;;7.65;3.05;;;17.20;86.90;;;;;;5047524;28;20036;-84
2021/06/15 22:45:15;;;;;;;7.05;3.17;;;17.30;85.80;;;;;;5038771;28;20150;-83
2021/06/15 22:47:41;;;;;;;5.40;3.10;;;17.30;84.60;;;;;;5055593;28;20101;-84
2021/06/15 22:50:08;;;;;;;8.63;4.07;;;17.10;86.10;;;;;;5042440;28;20087;-83
2021/06/15 22:52:34;;;;;;;7.65;3.25;;;17.10;86.20;;;;;;5060642;28;20032;-84
2021/06/15 22:54:59;;;;;;;4.80;2.58;;;17.20;81.10;;;;;;5054982;28;20032;-83
2021/06/15 22:57:25;;;;;;;6.50;3.13;;;17.40;78.60;;;;;;5035385;28;20035;-84
2021/06/15 22:59:51;;;;;;;5.75;3.20;;;17.30;85.70;;;;;;5027534;28;20025;-84
2021/06/15 23:02:16;;;;;;;7.32;3.47;;;17.20;86.40;;;;;;5062538;28;20457;-84
2021/06/15 23:04:42;;;;;;;9.15;3.67;;;17.10;86.60;;;;;;5058112;28;20020;-83
2021/06/15 23:07:07;;;;;;;10.77;3.47;;;17.00;86.20;;;;;;5053724;28;20036;-84
2021/06/15 23:09:33;;;;;;;5.50;2.70;;;17.00;86.80;;;;;;5040022;28;20355;-84
2021/06/15 23:11:59;;;;;;;4.55;2.58;;;16.90;87.10;;;;;;5047174;28;20527;-83
2021/06/15 23:14:33;;;;;;;8.60;3.10;;;16.90;88.10;;;;;;5060148;28;20339;-84
2021/06/15 23:16:59;;;;;;;4.22;3.17;;;16.80;88.00;;;;;;5039948;28;20492;-84
2021/06/15 23:19:24;;;;;;;7.40;3.40;;;16.80;86.40;;;;;;5044174;28;20033;-84
2021/06/15 23:21:51;;;;;;;6.55;3.83;;;16.80;86.30;;;;;;5037615;28;20036;-83
2021/06/15 23:24:17;;;;;;;6.55;2.58;;;16.80;86.70;;;;;;5055880;28;20142;-84
2021/06/15 23:26:42;;;;;;;7.53;3.03;;;16.70;85.20;;;;;;5019195;28;20426;-84